sensor_id;sensor_type;location;lat;lon;timestamp;P1;P2;P0
66395;PMS5003;53207;51.378;-1.342;2023-01-08T00:00:13;3;3;
66395;PMS5003;53207;51.378;-1.342;2023-01-08T00:02:41;3;2;
66395;PMS5003;53207;51.378;-1.342;2023-01-08T00:05:09;4;3;
66395;PMS5003;53207;51.378;-1.342;2023-01-08T00:07:36;3;2;
66395;PMS5003;53207;51.378;-1.342;2023-01-08T00:10:03;1;1;
66395;PMS5003;53207;51.378;-1.342;2023-01-08T00:12:31;3;2;
66395;PMS5003;53207;51.378;-1.342;2023-01-08T00:14:59;1;1;
66395;PMS5003;53207;51.378;-1.342;2023-01-08T00:17:26;3;2;
66395;PMS5003;53207;51.378;-1.342;2023-01-08T00:19:53;2;2;
66395;PMS5003;53207;51.378;-1.342;2023-01-08T00:22:20;1;1;
66395;PMS5003;53207;51.378;-1.342;2023-01-08T00:24:48;2;2;
66395;PMS5003;53207;51.378;-1.342;2023-01-08T00:27:15;1;1;
66395;PMS5003;53207;51.378;-1.342;2023-01-08T00:29:42;1;1;
66395;PMS5003;53207;51.378;-1.342;2023-01-08T00:32:10;3;2;
66395;PMS5003;53207;51.378;-1.342;2023-01-08T00:34:37;2;1;
66395;PMS5003;53207;51.378;-1.342;2023-01-08T00:37:04;1;0;
66395;PMS5003;53207;51.378;-1.342;2023-01-08T00:39:31;2;1;
66395;PMS5003;53207;51.378;-1.342;2023-01-08T00:41:59;2;1;
66395;PMS5003;53207;51.378;-1.342;2023-01-08T00:44:26;1;1;
66395;PMS5003;53207;51.378;-1.342;2023-01-08T00:46:53;1;0;
66395;PMS5003;53207;51.378;-1.342;2023-01-08T00:49:21;2;2;
66395;PMS5003;53207;51.378;-1.342;2023-01-08T00:51:48;1;1;
66395;PMS5003;53207;51.378;-1.342;2023-01-08T00:54:15;3;1;
66395;PMS5003;53207;51.378;-1.342;2023-01-08T00:56:43;3;1;
66395;PMS5003;53207;51.378;-1.342;2023-01-08T00:59:10;1;1;
66395;PMS5003;53207;51.378;-1.342;2023-01-08T01:01:37;1;1;
66395;PMS5003;53207;51.378;-1.342;2023-01-08T01:04:04;2;2;
66395;PMS5003;53207;51.378;-1.342;2023-01-08T01:06:32;6;5;
66395;PMS5003;53207;51.378;-1.342;2023-01-08T01:08:59;3;2;
66395;PMS5003;53207;51.378;-1.342;2023-01-08T01:11:26;4;4;
66395;PMS5003;53207;51.378;-1.342;2023-01-08T01:13:54;1;1;
66395;PMS5003;53207;51.378;-1.342;2023-01-08T01:16:22;2;0;
66395;PMS5003;53207;51.378;-1.342;2023-01-08T01:18:50;1;1;
66395;PMS5003;53207;51.378;-1.342;2023-01-08T01:21:19;2;1;
66395;PMS5003;53207;51.378;-1.342;2023-01-08T01:23:49;0;0;
66395;PMS5003;53207;51.378;-1.342;2023-01-08T01:26:19;3;1;
66395;PMS5003;53207;51.378;-1.342;2023-01-08T01:28:47;1;1;
66395;PMS5003;53207;51.378;-1.342;2023-01-08T01:31:16;4;3;
66395;PMS5003;53207;51.378;-1.342;2023-01-08T01:33:44;2;2;
66395;PMS5003;53207;51.378;-1.342;2023-01-08T01:36:13;0;0;
66395;PMS5003;53207;51.378;-1.342;2023-01-08T01:38:41;0;0;
66395;PMS5003;53207;51.378;-1.342;2023-01-08T01:41:11;0;0;
66395;PMS5003;53207;51.378;-1.342;2023-01-08T01:43:47;1;1;
66395;PMS5003;53207;51.378;-1.342;2023-01-08T01:46:16;2;1;
66395;PMS5003;53207;51.378;-1.342;2023-01-08T01:48:50;1;1;
66395;PMS5003;53207;51.378;-1.342;2023-01-08T01:51:22;2;1;
66395;PMS5003;53207;51.378;-1.342;2023-01-08T01:53:55;0;0;
66395;PMS5003;53207;51.378;-1.342;2023-01-08T01:56:23;1;1;
66395;PMS5003;53207;51.378;-1.342;2023-01-08T01:58:52;0;0;
66395;PMS5003;53207;51.378;-1.342;2023-01-08T02:01:20;4;3;
66395;PMS5003;53207;51.378;-1.342;2023-01-08T02:03:49;0;0;
66395;PMS5003;53207;51.378;-1.342;2023-01-08T02:06:18;1;1;
66395;PMS5003;53207;51.378;-1.342;2023-01-08T02:08:59;1;0;
66395;PMS5003;53207;51.378;-1.342;2023-01-08T02:11:31;2;1;
66395;PMS5003;53207;51.378;-1.342;2023-01-08T02:14:06;1;0;
66395;PMS5003;53207;51.378;-1.342;2023-01-08T02:16:39;3;2;
66395;PMS5003;53207;51.378;-1.342;2023-01-08T02:19:13;2;2;
66395;PMS5003;53207;51.378;-1.342;2023-01-08T02:21:51;0;0;
66395;PMS5003;53207;51.378;-1.342;2023-01-08T02:24:29;2;2;
66395;PMS5003;53207;51.378;-1.342;2023-01-08T02:27:08;1;1;
66395;PMS5003;53207;51.378;-1.342;2023-01-08T02:29:36;1;1;
66395;PMS5003;53207;51.378;-1.342;2023-01-08T02:32:04;1;1;
66395;PMS5003;53207;51.378;-1.342;2023-01-08T02:34:31;2;1;
66395;PMS5003;53207;51.378;-1.342;2023-01-08T02:36:59;1;1;
66395;PMS5003;53207;51.378;-1.342;2023-01-08T02:39:30;1;1;
66395;PMS5003;53207;51.378;-1.342;2023-01-08T02:42:10;1;1;
66395;PMS5003;53207;51.378;-1.342;2023-01-08T02:44:46;0;0;
66395;PMS5003;53207;51.378;-1.342;2023-01-08T02:47:22;0;0;
66395;PMS5003;53207;51.378;-1.342;2023-01-08T02:49:58;0;0;
66395;PMS5003;53207;51.378;-1.342;2023-01-08T02:52:31;2;2;
66395;PMS5003;53207;51.378;-1.342;2023-01-08T02:55:04;1;1;
66395;PMS5003;53207;51.378;-1.342;2023-01-08T02:57:32;1;0;
66395;PMS5003;53207;51.378;-1.342;2023-01-08T03:00:00;0;0;
66395;PMS5003;53207;51.378;-1.342;2023-01-08T03:02:29;0;0;
66395;PMS5003;53207;51.378;-1.342;2023-01-08T03:05:00;1;0;
66395;PMS5003;53207;51.378;-1.342;2023-01-08T03:07:32;1;0;
66395;PMS5003;53207;51.378;-1.342;2023-01-08T03:10:01;0;0;
66395;PMS5003;53207;51.378;-1.342;2023-01-08T03:12:30;0;0;
66395;PMS5003;53207;51.378;-1.342;2023-01-08T03:15:08;4;2;
66395;PMS5003;53207;51.378;-1.342;2023-01-08T03:17:42;1;0;
66395;PMS5003;53207;51.378;-1.342;2023-01-08T03:20:12;1;1;
66395;PMS5003;53207;51.378;-1.342;2023-01-08T03:22:43;0;0;
66395;PMS5003;53207;51.378;-1.342;2023-01-08T03:25:13;1;0;
66395;PMS5003;53207;51.378;-1.342;2023-01-08T03:27:44;2;1;
66395;PMS5003;53207;51.378;-1.342;2023-01-08T03:30:15;4;1;
66395;PMS5003;53207;51.378;-1.342;2023-01-08T03:32:44;1;0;
66395;PMS5003;53207;51.378;-1.342;2023-01-08T03:35:13;1;1;
66395;PMS5003;53207;51.378;-1.342;2023-01-08T03:37:47;1;1;
66395;PMS5003;53207;51.378;-1.342;2023-01-08T03:40:19;2;1;
66395;PMS5003;53207;51.378;-1.342;2023-01-08T03:42:48;1;1;
66395;PMS5003;53207;51.378;-1.342;2023-01-08T03:45:16;1;1;
66395;PMS5003;53207;51.378;-1.342;2023-01-08T03:47:43;2;1;
66395;PMS5003;53207;51.378;-1.342;2023-01-08T03:50:13;0;0;
66395;PMS5003;53207;51.378;-1.342;2023-01-08T03:52:45;0;0;
66395;PMS5003;53207;51.378;-1.342;2023-01-08T03:55:12;0;0;
66395;PMS5003;53207;51.378;-1.342;2023-01-08T03:57:39;0;0;
66395;PMS5003;53207;51.378;-1.342;2023-01-08T04:00:07;0;0;
66395;PMS5003;53207;51.378;-1.342;2023-01-08T04:02:35;1;1;
66395;PMS5003;53207;51.378;-1.342;2023-01-08T04:05:02;0;0;
66395;PMS5003;53207;51.378;-1.342;2023-01-08T04:07:30;1;0;
66395;PMS5003;53207;51.378;-1.342;2023-01-08T04:09:57;0;0;
66395;PMS5003;53207;51.378;-1.342;2023-01-08T04:12:25;0;0;
66395;PMS5003;53207;51.378;-1.342;2023-01-08T04:14:52;0;0;
66395;PMS5003;53207;51.378;-1.342;2023-01-08T04:17:19;0;0;
66395;PMS5003;53207;51.378;-1.342;2023-01-08T04:19:47;1;0;
66395;PMS5003;53207;51.378;-1.342;2023-01-08T04:22:14;0;0;
66395;PMS5003;53207;51.378;-1.342;2023-01-08T04:24:41;0;0;
66395;PMS5003;53207;51.378;-1.342;2023-01-08T04:27:09;0;0;
66395;PMS5003;53207;51.378;-1.342;2023-01-08T04:29:36;1;0;
66395;PMS5003;53207;51.378;-1.342;2023-01-08T04:32:03;0;0;
66395;PMS5003;53207;51.378;-1.342;2023-01-08T04:34:30;0;0;
66395;PMS5003;53207;51.378;-1.342;2023-01-08T04:36:58;0;0;
66395;PMS5003;53207;51.378;-1.342;2023-01-08T04:39:25;0;0;
66395;PMS5003;53207;51.378;-1.342;2023-01-08T04:41:52;1;1;
66395;PMS5003;53207;51.378;-1.342;2023-01-08T04:44:20;0;0;
66395;PMS5003;53207;51.378;-1.342;2023-01-08T04:46:48;1;1;
66395;PMS5003;53207;51.378;-1.342;2023-01-08T04:49:15;0;0;
66395;PMS5003;53207;51.378;-1.342;2023-01-08T04:51:42;0;0;
66395;PMS5003;53207;51.378;-1.342;2023-01-08T04:54:10;1;1;
66395;PMS5003;53207;51.378;-1.342;2023-01-08T04:56:37;0;0;
66395;PMS5003;53207;51.378;-1.342;2023-01-08T04:59:04;0;0;
66395;PMS5003;53207;51.378;-1.342;2023-01-08T05:01:31;0;0;
66395;PMS5003;53207;51.378;-1.342;2023-01-08T05:04:00;0;0;
66395;PMS5003;53207;51.378;-1.342;2023-01-08T05:06:29;0;0;
66395;PMS5003;53207;51.378;-1.342;2023-01-08T05:08:58;0;0;
66395;PMS5003;53207;51.378;-1.342;2023-01-08T05:11:25;0;0;
66395;PMS5003;53207;51.378;-1.342;2023-01-08T05:13:52;0;0;
66395;PMS5003;53207;51.378;-1.342;2023-01-08T05:16:20;0;0;
66395;PMS5003;53207;51.378;-1.342;2023-01-08T05:18:47;0;0;
66395;PMS5003;53207;51.378;-1.342;2023-01-08T05:21:14;1;1;
66395;PMS5003;53207;51.378;-1.342;2023-01-08T05:23:43;0;0;
66395;PMS5003;53207;51.378;-1.342;2023-01-08T05:26:10;0;0;
66395;PMS5003;53207;51.378;-1.342;2023-01-08T05:28:38;0;0;
66395;PMS5003;53207;51.378;-1.342;2023-01-08T05:31:05;0;0;
66395;PMS5003;53207;51.378;-1.342;2023-01-08T05:33:32;0;0;
66395;PMS5003;53207;51.378;-1.342;2023-01-08T05:36:00;0;0;
66395;PMS5003;53207;51.378;-1.342;2023-01-08T05:38:30;1;1;
66395;PMS5003;53207;51.378;-1.342;2023-01-08T05:40:58;0;0;
66395;PMS5003;53207;51.378;-1.342;2023-01-08T05:43:25;0;0;
66395;PMS5003;53207;51.378;-1.342;2023-01-08T05:45:52;0;0;
66395;PMS5003;53207;51.378;-1.342;2023-01-08T05:48:20;0;0;
66395;PMS5003;53207;51.378;-1.342;2023-01-08T05:50:47;0;0;
66395;PMS5003;53207;51.378;-1.342;2023-01-08T05:53:14;0;0;
66395;PMS5003;53207;51.378;-1.342;2023-01-08T05:55:42;0;0;
66395;PMS5003;53207;51.378;-1.342;2023-01-08T05:58:09;0;0;
66395;PMS5003;53207;51.378;-1.342;2023-01-08T06:00:36;0;0;
66395;PMS5003;53207;51.378;-1.342;2023-01-08T06:03:04;0;0;
66395;PMS5003;53207;51.378;-1.342;2023-01-08T06:05:32;0;0;
66395;PMS5003;53207;51.378;-1.342;2023-01-08T06:07:59;0;0;
66395;PMS5003;53207;51.378;-1.342;2023-01-08T06:10:26;1;0;
66395;PMS5003;53207;51.378;-1.342;2023-01-08T06:12:54;1;0;
66395;PMS5003;53207;51.378;-1.342;2023-01-08T06:15:21;0;0;
66395;PMS5003;53207;51.378;-1.342;2023-01-08T06:17:48;0;0;
66395;PMS5003;53207;51.378;-1.342;2023-01-08T06:20:15;0;0;
66395;PMS5003;53207;51.378;-1.342;2023-01-08T06:22:43;0;0;
66395;PMS5003;53207;51.378;-1.342;2023-01-08T06:25:10;0;0;
66395;PMS5003;53207;51.378;-1.342;2023-01-08T06:27:38;0;0;
66395;PMS5003;53207;51.378;-1.342;2023-01-08T06:30:06;0;0;
66395;PMS5003;53207;51.378;-1.342;2023-01-08T06:32:34;0;0;
66395;PMS5003;53207;51.378;-1.342;2023-01-08T06:35:02;0;0;
66395;PMS5003;53207;51.378;-1.342;2023-01-08T06:37:29;0;0;
66395;PMS5003;53207;51.378;-1.342;2023-01-08T06:39:56;1;0;
66395;PMS5003;53207;51.378;-1.342;2023-01-08T06:42:24;0;0;
66395;PMS5003;53207;51.378;-1.342;2023-01-08T06:44:51;0;0;
66395;PMS5003;53207;51.378;-1.342;2023-01-08T06:47:18;0;0;
66395;PMS5003;53207;51.378;-1.342;2023-01-08T06:49:46;0;0;
66395;PMS5003;53207;51.378;-1.342;2023-01-08T06:52:13;0;0;
66395;PMS5003;53207;51.378;-1.342;2023-01-08T06:54:40;0;0;
66395;PMS5003;53207;51.378;-1.342;2023-01-08T06:57:07;0;0;
66395;PMS5003;53207;51.378;-1.342;2023-01-08T06:59:35;0;0;
66395;PMS5003;53207;51.378;-1.342;2023-01-08T07:02:02;0;0;
66395;PMS5003;53207;51.378;-1.342;2023-01-08T07:04:29;0;0;
66395;PMS5003;53207;51.378;-1.342;2023-01-08T07:06:57;0;0;
66395;PMS5003;53207;51.378;-1.342;2023-01-08T07:09:24;0;0;
66395;PMS5003;53207;51.378;-1.342;2023-01-08T07:11:51;0;0;
66395;PMS5003;53207;51.378;-1.342;2023-01-08T07:14:19;0;0;
66395;PMS5003;53207;51.378;-1.342;2023-01-08T07:16:46;1;0;
66395;PMS5003;53207;51.378;-1.342;2023-01-08T07:19:13;0;0;
66395;PMS5003;53207;51.378;-1.342;2023-01-08T07:21:40;0;0;
66395;PMS5003;53207;51.378;-1.342;2023-01-08T07:24:08;0;0;
66395;PMS5003;53207;51.378;-1.342;2023-01-08T07:26:35;0;0;
66395;PMS5003;53207;51.378;-1.342;2023-01-08T07:29:02;0;0;
66395;PMS5003;53207;51.378;-1.342;2023-01-08T07:31:30;0;0;
66395;PMS5003;53207;51.378;-1.342;2023-01-08T07:33:57;0;0;
66395;PMS5003;53207;51.378;-1.342;2023-01-08T07:36:24;0;0;
66395;PMS5003;53207;51.378;-1.342;2023-01-08T07:38:51;0;0;
66395;PMS5003;53207;51.378;-1.342;2023-01-08T07:41:19;0;0;
66395;PMS5003;53207;51.378;-1.342;2023-01-08T07:43:46;0;0;
66395;PMS5003;53207;51.378;-1.342;2023-01-08T07:46:13;0;0;
66395;PMS5003;53207;51.378;-1.342;2023-01-08T07:48:41;0;0;
66395;PMS5003;53207;51.378;-1.342;2023-01-08T07:51:08;0;0;
66395;PMS5003;53207;51.378;-1.342;2023-01-08T07:53:36;0;0;
66395;PMS5003;53207;51.378;-1.342;2023-01-08T07:56:04;0;0;
66395;PMS5003;53207;51.378;-1.342;2023-01-08T07:58:33;0;0;
66395;PMS5003;53207;51.378;-1.342;2023-01-08T08:01:01;0;0;
66395;PMS5003;53207;51.378;-1.342;2023-01-08T08:03:29;1;0;
66395;PMS5003;53207;51.378;-1.342;2023-01-08T08:05:58;0;0;
66395;PMS5003;53207;51.378;-1.342;2023-01-08T08:08:25;0;0;
66395;PMS5003;53207;51.378;-1.342;2023-01-08T08:10:52;0;0;
66395;PMS5003;53207;51.378;-1.342;2023-01-08T08:13:20;0;0;
66395;PMS5003;53207;51.378;-1.342;2023-01-08T08:15:47;0;0;
66395;PMS5003;53207;51.378;-1.342;2023-01-08T08:18:14;0;0;
66395;PMS5003;53207;51.378;-1.342;2023-01-08T08:20:42;0;0;
66395;PMS5003;53207;51.378;-1.342;2023-01-08T08:23:10;0;0;
66395;PMS5003;53207;51.378;-1.342;2023-01-08T08:25:38;0;0;
66395;PMS5003;53207;51.378;-1.342;2023-01-08T08:28:06;0;0;
66395;PMS5003;53207;51.378;-1.342;2023-01-08T08:30:36;0;0;
66395;PMS5003;53207;51.378;-1.342;2023-01-08T08:33:05;2;2;
66395;PMS5003;53207;51.378;-1.342;2023-01-08T08:35:33;0;0;
66395;PMS5003;53207;51.378;-1.342;2023-01-08T08:38:00;0;0;
66395;PMS5003;53207;51.378;-1.342;2023-01-08T08:40:29;0;0;
66395;PMS5003;53207;51.378;-1.342;2023-01-08T08:42:56;0;0;
66395;PMS5003;53207;51.378;-1.342;2023-01-08T08:45:24;0;0;
66395;PMS5003;53207;51.378;-1.342;2023-01-08T08:47:52;0;0;
66395;PMS5003;53207;51.378;-1.342;2023-01-08T08:50:19;0;0;
66395;PMS5003;53207;51.378;-1.342;2023-01-08T08:52:47;1;0;
66395;PMS5003;53207;51.378;-1.342;2023-01-08T08:55:14;0;0;
66395;PMS5003;53207;51.378;-1.342;2023-01-08T08:57:44;0;0;
66395;PMS5003;53207;51.378;-1.342;2023-01-08T09:00:13;0;0;
66395;PMS5003;53207;51.378;-1.342;2023-01-08T09:02:41;0;0;
66395;PMS5003;53207;51.378;-1.342;2023-01-08T09:05:08;0;0;
66395;PMS5003;53207;51.378;-1.342;2023-01-08T09:07:35;0;0;
66395;PMS5003;53207;51.378;-1.342;2023-01-08T09:10:03;0;0;
66395;PMS5003;53207;51.378;-1.342;2023-01-08T09:12:31;0;0;
66395;PMS5003;53207;51.378;-1.342;2023-01-08T09:14:58;0;0;
66395;PMS5003;53207;51.378;-1.342;2023-01-08T09:17:25;0;0;
66395;PMS5003;53207;51.378;-1.342;2023-01-08T09:19:53;0;0;
66395;PMS5003;53207;51.378;-1.342;2023-01-08T09:22:20;0;0;
66395;PMS5003;53207;51.378;-1.342;2023-01-08T09:24:47;0;0;
66395;PMS5003;53207;51.378;-1.342;2023-01-08T09:27:15;0;0;
66395;PMS5003;53207;51.378;-1.342;2023-01-08T09:29:42;0;0;
66395;PMS5003;53207;51.378;-1.342;2023-01-08T09:32:09;0;0;
66395;PMS5003;53207;51.378;-1.342;2023-01-08T09:34:36;0;0;
66395;PMS5003;53207;51.378;-1.342;2023-01-08T09:37:04;1;1;
66395;PMS5003;53207;51.378;-1.342;2023-01-08T09:39:31;0;0;
66395;PMS5003;53207;51.378;-1.342;2023-01-08T09:42:00;1;0;
66395;PMS5003;53207;51.378;-1.342;2023-01-08T09:44:31;0;0;
66395;PMS5003;53207;51.378;-1.342;2023-01-08T09:47:02;11;10;
66395;PMS5003;53207;51.378;-1.342;2023-01-08T09:49:32;117;103;
66395;PMS5003;53207;51.378;-1.342;2023-01-08T09:52:05;98;85;
66395;PMS5003;53207;51.378;-1.342;2023-01-08T09:54:35;79;71;
66395;PMS5003;53207;51.378;-1.342;2023-01-08T09:57:02;107;90;
66395;PMS5003;53207;51.378;-1.342;2023-01-08T09:59:29;88;79;
66395;PMS5003;53207;51.378;-1.342;2023-01-08T10:01:57;81;74;
66395;PMS5003;53207;51.378;-1.342;2023-01-08T10:04:25;80;73;
66395;PMS5003;53207;51.378;-1.342;2023-01-08T10:06:56;93;82;
66395;PMS5003;53207;51.378;-1.342;2023-01-08T10:09:27;75;67;
66395;PMS5003;53207;51.378;-1.342;2023-01-08T10:11:57;82;68;
66395;PMS5003;53207;51.378;-1.342;2023-01-08T10:14:28;73;61;
66395;PMS5003;53207;51.378;-1.342;2023-01-08T10:16:59;78;67;
66395;PMS5003;53207;51.378;-1.342;2023-01-08T10:19:31;63;56;
66395;PMS5003;53207;51.378;-1.342;2023-01-08T10:21:57;53;50;
66395;PMS5003;53207;51.378;-1.342;2023-01-08T10:24:34;56;50;
66395;PMS5003;53207;51.378;-1.342;2023-01-08T10:27:06;43;37;
66395;PMS5003;53207;51.378;-1.342;2023-01-08T10:29:37;41;38;
66395;PMS5003;53207;51.378;-1.342;2023-01-08T10:32:06;42;36;
66395;PMS5003;53207;51.378;-1.342;2023-01-08T10:34:41;29;24;
66395;PMS5003;53207;51.378;-1.342;2023-01-08T10:37:13;33;29;
66395;PMS5003;53207;51.378;-1.342;2023-01-08T10:39:45;25;22;
66395;PMS5003;53207;51.378;-1.342;2023-01-08T10:42:13;25;21;
66395;PMS5003;53207;51.378;-1.342;2023-01-08T10:44:45;26;23;
66395;PMS5003;53207;51.378;-1.342;2023-01-08T10:47:19;26;19;
66395;PMS5003;53207;51.378;-1.342;2023-01-08T10:49:47;17;15;
66395;PMS5003;53207;51.378;-1.342;2023-01-08T10:52:22;18;16;
66395;PMS5003;53207;51.378;-1.342;2023-01-08T10:54:52;14;14;
66395;PMS5003;53207;51.378;-1.342;2023-01-08T10:57:20;14;12;
66395;PMS5003;53207;51.378;-1.342;2023-01-08T10:59:50;11;10;
66395;PMS5003;53207;51.378;-1.342;2023-01-08T11:02:23;10;9;
66395;PMS5003;53207;51.378;-1.342;2023-01-08T11:04:57;8;8;
66395;PMS5003;53207;51.378;-1.342;2023-01-08T11:07:25;13;11;
66395;PMS5003;53207;51.378;-1.342;2023-01-08T11:09:53;10;9;
66395;PMS5003;53207;51.378;-1.342;2023-01-08T11:12:26;6;6;
66395;PMS5003;53207;51.378;-1.342;2023-01-08T11:14:58;8;7;
66395;PMS5003;53207;51.378;-1.342;2023-01-08T11:17:25;5;4;
66395;PMS5003;53207;51.378;-1.342;2023-01-08T11:19:53;5;4;
66395;PMS5003;53207;51.378;-1.342;2023-01-08T11:22:31;3;3;
66395;PMS5003;53207;51.378;-1.342;2023-01-08T11:24:58;6;5;
66395;PMS5003;53207;51.378;-1.342;2023-01-08T11:27:26;5;5;
66395;PMS5003;53207;51.378;-1.342;2023-01-08T11:29:57;5;3;
66395;PMS5003;53207;51.378;-1.342;2023-01-08T11:32:31;6;5;
66395;PMS5003;53207;51.378;-1.342;2023-01-08T11:35:10;3;2;
66395;PMS5003;53207;51.378;-1.342;2023-01-08T11:37:42;4;4;
66395;PMS5003;53207;51.378;-1.342;2023-01-08T11:40:14;5;3;
66395;PMS5003;53207;51.378;-1.342;2023-01-08T11:42:47;2;2;
66395;PMS5003;53207;51.378;-1.342;2023-01-08T11:45:31;4;4;
66395;PMS5003;53207;51.378;-1.342;2023-01-08T11:48:07;2;2;
66395;PMS5003;53207;51.378;-1.342;2023-01-08T11:50:48;3;3;
66395;PMS5003;53207;51.378;-1.342;2023-01-08T11:53:30;2;2;
66395;PMS5003;53207;51.378;-1.342;2023-01-08T11:56:07;4;3;
66395;PMS5003;53207;51.378;-1.342;2023-01-08T11:58:49;2;1;
66395;PMS5003;53207;51.378;-1.342;2023-01-08T12:01:32;4;3;
66395;PMS5003;53207;51.378;-1.342;2023-01-08T12:04:14;3;3;
66395;PMS5003;53207;51.378;-1.342;2023-01-08T12:06:57;3;3;
66395;PMS5003;53207;51.378;-1.342;2023-01-08T12:09:34;1;1;
66395;PMS5003;53207;51.378;-1.342;2023-01-08T12:12:11;2;2;
66395;PMS5003;53207;51.378;-1.342;2023-01-08T12:14:51;2;2;
66395;PMS5003;53207;51.378;-1.342;2023-01-08T12:17:35;2;2;
66395;PMS5003;53207;51.378;-1.342;2023-01-08T12:20:16;2;2;
66395;PMS5003;53207;51.378;-1.342;2023-01-08T12:22:54;3;2;
66395;PMS5003;53207;51.378;-1.342;2023-01-08T12:25:35;1;1;
66395;PMS5003;53207;51.378;-1.342;2023-01-08T12:28:17;2;2;
66395;PMS5003;53207;51.378;-1.342;2023-01-08T12:31:06;3;3;
66395;PMS5003;53207;51.378;-1.342;2023-01-08T12:33:48;2;2;
66395;PMS5003;53207;51.378;-1.342;2023-01-08T12:36:19;3;3;
66395;PMS5003;53207;51.378;-1.342;2023-01-08T12:38:54;4;3;
66395;PMS5003;53207;51.378;-1.342;2023-01-08T12:41:26;2;2;
66395;PMS5003;53207;51.378;-1.342;2023-01-08T12:43:56;2;1;
66395;PMS5003;53207;51.378;-1.342;2023-01-08T12:46:29;1;1;
66395;PMS5003;53207;51.378;-1.342;2023-01-08T12:48:58;3;2;
66395;PMS5003;53207;51.378;-1.342;2023-01-08T12:51:27;4;3;
66395;PMS5003;53207;51.378;-1.342;2023-01-08T12:54:01;1;0;
66395;PMS5003;53207;51.378;-1.342;2023-01-08T12:56:37;1;1;
66395;PMS5003;53207;51.378;-1.342;2023-01-08T12:59:14;2;1;
66395;PMS5003;53207;51.378;-1.342;2023-01-08T13:01:51;1;1;
66395;PMS5003;53207;51.378;-1.342;2023-01-08T13:04:25;1;1;
66395;PMS5003;53207;51.378;-1.342;2023-01-08T13:06:54;1;1;
66395;PMS5003;53207;51.378;-1.342;2023-01-08T13:09:26;1;1;
66395;PMS5003;53207;51.378;-1.342;2023-01-08T13:11:54;1;1;
66395;PMS5003;53207;51.378;-1.342;2023-01-08T13:14:24;1;1;
66395;PMS5003;53207;51.378;-1.342;2023-01-08T13:17:00;1;1;
66395;PMS5003;53207;51.378;-1.342;2023-01-08T13:19:31;1;1;
66395;PMS5003;53207;51.378;-1.342;2023-01-08T13:22:05;0;0;
66395;PMS5003;53207;51.378;-1.342;2023-01-08T13:24:49;1;0;
66395;PMS5003;53207;51.378;-1.342;2023-01-08T13:27:25;2;1;
66395;PMS5003;53207;51.378;-1.342;2023-01-08T13:29:54;2;1;
66395;PMS5003;53207;51.378;-1.342;2023-01-08T13:32:22;0;0;
66395;PMS5003;53207;51.378;-1.342;2023-01-08T13:34:59;2;1;
66395;PMS5003;53207;51.378;-1.342;2023-01-08T13:37:28;1;1;
66395;PMS5003;53207;51.378;-1.342;2023-01-08T13:39:56;2;2;
66395;PMS5003;53207;51.378;-1.342;2023-01-08T13:42:23;1;1;
66395;PMS5003;53207;51.378;-1.342;2023-01-08T13:44:55;2;1;
66395;PMS5003;53207;51.378;-1.342;2023-01-08T13:47:27;1;1;
66395;PMS5003;53207;51.378;-1.342;2023-01-08T13:49:57;1;1;
66395;PMS5003;53207;51.378;-1.342;2023-01-08T13:52:36;1;1;
66395;PMS5003;53207;51.378;-1.342;2023-01-08T13:55:11;2;2;
66395;PMS5003;53207;51.378;-1.342;2023-01-08T13:57:43;1;1;
66395;PMS5003;53207;51.378;-1.342;2023-01-08T14:00:17;3;2;
66395;PMS5003;53207;51.378;-1.342;2023-01-08T14:02:49;1;1;
66395;PMS5003;53207;51.378;-1.342;2023-01-08T14:05:19;3;3;
66395;PMS5003;53207;51.378;-1.342;2023-01-08T14:07:49;1;1;
66395;PMS5003;53207;51.378;-1.342;2023-01-08T14:10:16;1;1;
66395;PMS5003;53207;51.378;-1.342;2023-01-08T14:12:44;1;1;
66395;PMS5003;53207;51.378;-1.342;2023-01-08T14:15:21;1;1;
66395;PMS5003;53207;51.378;-1.342;2023-01-08T14:17:51;1;1;
66395;PMS5003;53207;51.378;-1.342;2023-01-08T14:20:21;1;1;
66395;PMS5003;53207;51.378;-1.342;2023-01-08T14:22:55;3;2;
66395;PMS5003;53207;51.378;-1.342;2023-01-08T14:25:22;2;1;
66395;PMS5003;53207;51.378;-1.342;2023-01-08T14:27:53;1;1;
66395;PMS5003;53207;51.378;-1.342;2023-01-08T14:30:22;2;1;
66395;PMS5003;53207;51.378;-1.342;2023-01-08T14:32:51;1;1;
66395;PMS5003;53207;51.378;-1.342;2023-01-08T14:35:22;1;1;
66395;PMS5003;53207;51.378;-1.342;2023-01-08T14:37:54;1;1;
66395;PMS5003;53207;51.378;-1.342;2023-01-08T14:40:27;2;1;
66395;PMS5003;53207;51.378;-1.342;2023-01-08T14:42:56;1;1;
66395;PMS5003;53207;51.378;-1.342;2023-01-08T14:45:29;1;1;
66395;PMS5003;53207;51.378;-1.342;2023-01-08T14:47:58;1;1;
66395;PMS5003;53207;51.378;-1.342;2023-01-08T14:50:33;1;1;
66395;PMS5003;53207;51.378;-1.342;2023-01-08T14:53:04;1;1;
66395;PMS5003;53207;51.378;-1.342;2023-01-08T14:55:33;2;2;
66395;PMS5003;53207;51.378;-1.342;2023-01-08T14:58:10;2;1;
66395;PMS5003;53207;51.378;-1.342;2023-01-08T15:00:41;2;1;
66395;PMS5003;53207;51.378;-1.342;2023-01-08T15:03:26;3;2;
66395;PMS5003;53207;51.378;-1.342;2023-01-08T15:05:57;4;2;
66395;PMS5003;53207;51.378;-1.342;2023-01-08T15:08:25;1;1;
66395;PMS5003;53207;51.378;-1.342;2023-01-08T15:10:58;0;0;
66395;PMS5003;53207;51.378;-1.342;2023-01-08T15:13:29;1;1;
66395;PMS5003;53207;51.378;-1.342;2023-01-08T15:15:58;2;1;
66395;PMS5003;53207;51.378;-1.342;2023-01-08T15:18:32;2;2;
66395;PMS5003;53207;51.378;-1.342;2023-01-08T15:21:02;0;0;
66395;PMS5003;53207;51.378;-1.342;2023-01-08T15:23:33;1;1;
66395;PMS5003;53207;51.378;-1.342;2023-01-08T15:26:08;2;1;
66395;PMS5003;53207;51.378;-1.342;2023-01-08T15:28:37;2;1;
66395;PMS5003;53207;51.378;-1.342;2023-01-08T15:31:09;1;1;
66395;PMS5003;53207;51.378;-1.342;2023-01-08T15:33:36;3;3;
66395;PMS5003;53207;51.378;-1.342;2023-01-08T15:36:05;2;1;
66395;PMS5003;53207;51.378;-1.342;2023-01-08T15:38:32;1;1;
66395;PMS5003;53207;51.378;-1.342;2023-01-08T15:40:59;1;1;
66395;PMS5003;53207;51.378;-1.342;2023-01-08T15:43:26;1;1;
66395;PMS5003;53207;51.378;-1.342;2023-01-08T15:45:54;1;0;
66395;PMS5003;53207;51.378;-1.342;2023-01-08T15:48:21;1;0;
66395;PMS5003;53207;51.378;-1.342;2023-01-08T15:50:48;1;0;
66395;PMS5003;53207;51.378;-1.342;2023-01-08T15:53:16;1;1;
66395;PMS5003;53207;51.378;-1.342;2023-01-08T15:55:44;0;0;
66395;PMS5003;53207;51.378;-1.342;2023-01-08T15:58:12;1;1;
66395;PMS5003;53207;51.378;-1.342;2023-01-08T16:00:40;0;0;
66395;PMS5003;53207;51.378;-1.342;2023-01-08T16:03:10;1;1;
66395;PMS5003;53207;51.378;-1.342;2023-01-08T16:05:37;3;0;
66395;PMS5003;53207;51.378;-1.342;2023-01-08T16:08:04;1;1;
66395;PMS5003;53207;51.378;-1.342;2023-01-08T16:10:32;1;1;
66395;PMS5003;53207;51.378;-1.342;2023-01-08T16:12:59;0;0;
66395;PMS5003;53207;51.378;-1.342;2023-01-08T16:15:27;0;0;
66395;PMS5003;53207;51.378;-1.342;2023-01-08T16:17:54;0;0;
66395;PMS5003;53207;51.378;-1.342;2023-01-08T16:20:22;0;0;
66395;PMS5003;53207;51.378;-1.342;2023-01-08T16:22:49;0;0;
66395;PMS5003;53207;51.378;-1.342;2023-01-08T16:25:16;0;0;
66395;PMS5003;53207;51.378;-1.342;2023-01-08T16:27:44;0;0;
66395;PMS5003;53207;51.378;-1.342;2023-01-08T16:30:12;0;0;
66395;PMS5003;53207;51.378;-1.342;2023-01-08T16:32:40;0;0;
66395;PMS5003;53207;51.378;-1.342;2023-01-08T16:35:08;0;0;
66395;PMS5003;53207;51.378;-1.342;2023-01-08T16:37:37;0;0;
66395;PMS5003;53207;51.378;-1.342;2023-01-08T16:40:05;0;0;
66395;PMS5003;53207;51.378;-1.342;2023-01-08T16:42:33;0;0;
66395;PMS5003;53207;51.378;-1.342;2023-01-08T16:45:00;1;0;
66395;PMS5003;53207;51.378;-1.342;2023-01-08T16:47:27;0;0;